createdAt,value
2023-02-14T00:00:23.737Z,71.97
2023-02-14T00:03:16.516Z,72.01
2023-02-14T00:05:45.784Z,72.36
2023-02-14T00:08:16.665Z,72.27
2023-02-14T00:10:46.796Z,72.62
2023-02-14T00:13:17.294Z,72.83
2023-02-14T00:15:47.483Z,72.96
2023-02-14T00:18:19.830Z,72.62
2023-02-14T00:20:48.954Z,72.60
2023-02-14T00:23:18.542Z,72.58
2023-02-14T00:25:47.923Z,72.41
2023-02-14T00:28:17.950Z,72.51
2023-02-14T00:30:49.333Z,72.90
2023-02-14T00:33:19.483Z,73.17
2023-02-14T00:35:49.772Z,72.81
2023-02-14T00:38:20.029Z,72.86
2023-02-14T00:40:49.491Z,72.90
2023-02-14T00:43:20.702Z,73.34
2023-02-14T00:45:50.697Z,72.81
2023-02-14T00:48:20.084Z,73.33
2023-02-14T00:50:50.699Z,73.22
2023-02-14T00:53:20.681Z,73.05
2023-02-14T00:55:51.330Z,72.52
2023-02-14T00:58:20.718Z,72.28
2023-02-14T01:00:50.222Z,72.49
2023-02-14T01:03:20.749Z,72.81
2023-02-14T01:05:50.789Z,72.33
2023-02-14T01:08:21.476Z,72.86
2023-02-14T01:10:52.520Z,71.66
2023-02-14T01:13:23.101Z,71.58
2023-02-14T01:15:53.961Z,72.40
2023-02-14T01:18:23.760Z,72.44
2023-02-14T01:20:53.401Z,72.27
2023-02-14T01:23:24.225Z,72.60
2023-02-14T01:25:54.528Z,72.76
2023-02-14T01:28:25.045Z,72.72
2023-02-14T01:30:55.726Z,72.67
2023-02-14T01:33:26.092Z,73.16
2023-02-14T01:35:56.268Z,73.13
2023-02-14T01:38:25.550Z,73.18
2023-02-14T01:40:56.156Z,73.65
2023-02-14T01:43:26.896Z,73.11
2023-02-14T01:45:56.727Z,73.63
2023-02-14T01:48:26.314Z,73.68
2023-02-14T01:51:00.363Z,73.22
2023-02-14T01:53:31.132Z,72.91
2023-02-14T01:56:08.785Z,73.32
2023-02-14T01:58:45.391Z,72.97
2023-02-14T02:01:18.205Z,73.42
2023-02-14T02:03:56.856Z,73.46
2023-02-14T02:06:36.474Z,73.52
2023-02-14T02:09:25.664Z,73.79
2023-02-14T02:11:56.451Z,73.77
2023-02-14T02:14:26.760Z,73.88
2023-02-14T02:17:11.736Z,73.60
2023-02-14T02:20:19.512Z,73.31
2023-02-14T02:22:51.838Z,74.32
2023-02-14T02:25:33.816Z,74.56
2023-02-14T02:28:04.032Z,75.04
2023-02-14T02:30:39.996Z,74.31
2023-02-14T02:34:06.306Z,74.82
2023-02-14T02:36:49.223Z,74.64
2023-02-14T02:39:43.054Z,74.37
2023-02-14T02:42:34.815Z,74.56
2023-02-14T02:46:08.829Z,74.89
2023-02-14T02:48:51.617Z,74.77
2023-02-14T02:51:54.949Z,74.43
2023-02-14T02:54:37.542Z,74.69
2023-02-14T02:57:16.516Z,74.58
2023-02-14T02:59:50.388Z,74.43
2023-02-14T03:02:28.973Z,74.35
2023-02-14T03:05:05.312Z,74.18
2023-02-14T03:07:40.654Z,73.77
2023-02-14T03:10:24.337Z,73.53
2023-02-14T03:13:12.709Z,73.68
2023-02-14T03:16:14.339Z,73.41
2023-02-14T03:18:59.657Z,73.60
2023-02-14T03:21:56.298Z,73.64
2023-02-14T03:24:52.890Z,73.56
2023-02-14T03:27:27.818Z,73.43
2023-02-14T03:30:04.361Z,73.08
2023-02-14T03:32:50.748Z,73.46
2023-02-14T03:35:32.907Z,74.03
2023-02-14T03:38:15.756Z,73.54
2023-02-14T03:40:58.676Z,73.26
2023-02-14T03:43:35.011Z,73.28
2023-02-14T03:46:11.080Z,73.76
2023-02-14T03:48:43.288Z,73.69
2023-02-14T03:51:16.256Z,73.56
2023-02-14T03:53:49.089Z,73.54
2023-02-14T03:57:13.290Z,73.54
2023-02-14T03:59:43.685Z,73.16
2023-02-14T04:02:21.821Z,73.59
2023-02-14T04:04:54.875Z,74.10
2023-02-14T04:07:26.476Z,73.75
2023-02-14T04:09:56.802Z,73.96
2023-02-14T04:12:37.445Z,73.86
2023-02-14T04:15:09.299Z,73.91
2023-02-14T04:17:58.576Z,73.77
2023-02-14T04:20:29.015Z,73.65
2023-02-14T04:22:58.915Z,73.36
2023-02-14T04:25:29.035Z,73.40
2023-02-14T04:27:59.345Z,72.97
2023-02-14T04:30:29.495Z,72.94
2023-02-14T04:32:59.036Z,72.83
2023-02-14T04:35:28.462Z,72.62
2023-02-14T04:38:04.384Z,72.52
2023-02-14T04:40:34.090Z,72.69
2023-02-14T04:43:05.283Z,72.59
2023-02-14T04:45:37.122Z,72.68
2023-02-14T04:48:07.428Z,72.52
2023-02-14T04:50:37.292Z,72.33
2023-02-14T04:53:07.681Z,72.40
2023-02-14T04:55:38.466Z,72.58
2023-02-14T04:58:12.308Z,72.40
2023-02-14T05:00:42.803Z,72.74
2023-02-14T05:03:12.974Z,72.59
2023-02-14T05:05:42.625Z,72.95
2023-02-14T05:08:15.012Z,72.75
2023-02-14T05:10:46.021Z,72.94
2023-02-14T05:13:16.401Z,72.86
2023-02-14T05:15:47.533Z,72.85
2023-02-14T05:18:18.283Z,73.01
2023-02-14T05:20:52.912Z,72.73
2023-02-14T05:23:23.460Z,72.72
2023-02-14T05:25:53.922Z,72.59
2023-02-14T05:28:30.889Z,72.92
2023-02-14T05:31:02.570Z,72.72
2023-02-14T05:33:33.038Z,72.89
2023-02-14T05:36:04.470Z,72.87
2023-02-14T05:38:35.691Z,73.00
2023-02-14T05:41:05.793Z,72.97
2023-02-14T05:43:36.230Z,72.78
2023-02-14T05:46:06.613Z,72.50
2023-02-14T05:48:35.868Z,72.45
2023-02-14T05:51:11.175Z,72.32
2023-02-14T05:53:41.542Z,72.10
2023-02-14T05:56:12.124Z,72.12
2023-02-14T05:58:42.036Z,71.86
2023-02-14T06:01:13.747Z,71.95
2023-02-14T06:03:43.870Z,71.86
2023-02-14T06:06:15.627Z,71.94
2023-02-14T06:08:45.141Z,71.70
2023-02-14T06:11:14.857Z,71.39
2023-02-14T06:13:47.631Z,71.22
2023-02-14T06:16:17.840Z,70.95
2023-02-14T06:18:47.141Z,70.83
2023-02-14T06:21:16.704Z,70.69
2023-02-14T06:23:46.189Z,70.59
2023-02-14T06:26:15.696Z,70.46
2023-02-14T06:28:45.979Z,70.49
2023-02-14T06:31:18.313Z,70.26
2023-02-14T06:33:48.918Z,70.42
2023-02-14T06:36:20.767Z,70.08
2023-02-14T06:38:51.935Z,70.26
2023-02-14T06:41:23.166Z,70.14
2023-02-14T06:43:55.099Z,70.22
2023-02-14T06:46:25.690Z,70.18
2023-02-14T06:48:56.217Z,70.18
2023-02-14T06:51:27.647Z,69.95
2023-02-14T06:53:59.527Z,69.89
2023-02-14T06:56:29.821Z,69.88
2023-02-14T06:58:58.980Z,69.84
2023-02-14T07:01:36.968Z,69.81
2023-02-14T07:04:06.529Z,70.00
2023-02-14T07:06:40.566Z,69.93
2023-02-14T07:09:10.338Z,69.98
2023-02-14T07:11:41.907Z,70.14
2023-02-14T07:14:17.831Z,70.02
2023-02-14T07:16:54.649Z,70.16
2023-02-14T07:19:28.554Z,70.27
2023-02-14T07:22:03.965Z,70.20
2023-02-14T07:24:37.682Z,70.12
2023-02-14T07:27:11.609Z,70.10
2023-02-14T07:29:41.431Z,69.95
2023-02-14T07:32:17.847Z,69.70
2023-02-14T07:34:57.509Z,69.72
2023-02-14T07:37:26.890Z,69.82
2023-02-14T07:40:00.868Z,69.79
2023-02-14T07:42:32.382Z,69.73
2023-02-14T07:45:21.268Z,69.83
2023-02-14T07:48:06.023Z,69.61
2023-02-14T07:50:36.448Z,69.80
2023-02-14T07:53:20.075Z,69.64
2023-02-14T07:55:53.756Z,69.70
2023-02-14T07:58:27.110Z,69.73
2023-02-14T08:01:00.891Z,69.51
2023-02-14T08:03:35.176Z,69.32
2023-02-14T08:06:05.267Z,69.31
2023-02-14T08:08:36.446Z,69.15
2023-02-14T08:11:05.888Z,68.98
2023-02-14T08:13:39.462Z,68.87
2023-02-14T08:16:16.295Z,68.69
2023-02-14T08:18:50.774Z,68.94
2023-02-14T08:21:33.836Z,68.83
2023-02-14T08:24:04.391Z,69.02
2023-02-14T08:26:44.493Z,68.90
2023-02-14T08:29:16.793Z,68.88
2023-02-14T08:32:00.624Z,68.90
2023-02-14T08:34:45.028Z,68.97
2023-02-14T08:37:17.677Z,68.93
2023-02-14T08:39:51.972Z,68.77
2023-02-14T08:42:24.158Z,68.88
2023-02-14T08:44:53.732Z,68.98
2023-02-14T08:47:26.100Z,68.99
2023-02-14T08:50:03.672Z,69.04
2023-02-14T08:52:34.595Z,69.08
2023-02-14T08:55:20.313Z,68.88
2023-02-14T08:58:05.964Z,68.93
2023-02-14T09:00:36.454Z,69.04
2023-02-14T09:03:11.010Z,68.89
2023-02-14T09:05:44.622Z,68.89
2023-02-14T09:08:27.027Z,68.76
2023-02-14T09:11:23.790Z,68.60
2023-02-14T09:14:00.123Z,68.58
2023-02-14T09:16:32.471Z,68.56
2023-02-14T09:19:15.166Z,68.42
2023-02-14T09:21:45.299Z,68.37
2023-02-14T09:24:22.868Z,68.20
2023-02-14T09:27:01.830Z,67.94
2023-02-14T09:29:39.464Z,67.94
2023-02-14T09:32:11.776Z,67.78
2023-02-14T09:34:49.718Z,67.78
2023-02-14T09:37:37.560Z,67.93
2023-02-14T09:40:23.570Z,67.85
2023-02-14T09:43:16.628Z,67.79
2023-02-14T09:46:06.845Z,67.66
2023-02-14T09:48:49.969Z,67.59
2023-02-14T09:51:40.704Z,67.28
2023-02-14T09:54:23.921Z,67.27
2023-02-14T09:57:03.772Z,67.16
2023-02-14T10:00:03.361Z,67.11
2023-02-14T10:02:41.019Z,67.02
2023-02-14T10:05:56.620Z,66.71
2023-02-14T10:08:47.615Z,67.01
2023-02-14T10:11:23.906Z,66.70
2023-02-14T10:14:08.002Z,66.57
2023-02-14T10:17:13.546Z,66.16
2023-02-14T10:19:59.830Z,65.40
2023-02-14T10:23:00.215Z,64.94
2023-02-14T10:25:48.634Z,64.56
2023-02-14T10:28:46.094Z,64.63
2023-02-14T10:31:28.330Z,64.06
2023-02-14T10:34:25.039Z,63.72
2023-02-14T10:37:30.041Z,63.98
2023-02-14T10:40:43.280Z,63.72
2023-02-14T10:43:46.529Z,63.89
2023-02-14T10:46:18.355Z,63.89
2023-02-14T10:49:18.793Z,63.81
2023-02-14T10:52:19.819Z,63.24
2023-02-14T10:55:13.890Z,62.49
2023-02-14T10:58:01.412Z,60.99
2023-02-14T11:00:50.199Z,59.56
2023-02-14T11:03:34.293Z,58.80
2023-02-14T11:06:16.656Z,57.85
2023-02-14T11:08:46.286Z,56.77
2023-02-14T11:11:49.843Z,56.56
2023-02-14T11:14:33.208Z,55.82
2023-02-14T11:17:34.914Z,54.82
2023-02-14T11:20:30.704Z,54.06
2023-02-14T11:23:25.663Z,53.39
2023-02-14T11:26:04.574Z,52.13
2023-02-14T11:28:53.841Z,51.12
2023-02-14T11:31:46.066Z,50.36
2023-02-14T11:34:37.203Z,51.25
2023-02-14T11:37:23.413Z,51.46
2023-02-14T11:40:02.687Z,51.93
2023-02-14T11:42:51.610Z,52.03
2023-02-14T11:45:36.757Z,51.40
2023-02-14T11:48:35.208Z,50.33
2023-02-14T11:51:15.049Z,50.31
2023-02-14T11:53:57.427Z,50.67
2023-02-14T11:56:56.810Z,50.29
2023-02-14T11:59:40.677Z,51.11
2023-02-14T12:02:28.277Z,51.39
2023-02-14T12:05:28.427Z,51.07
2023-02-14T12:08:04.666Z,50.06
2023-02-14T12:10:42.707Z,49.59
2023-02-14T12:13:12.322Z,48.92
2023-02-14T12:15:45.160Z,48.28
2023-02-14T12:18:58.921Z,48.68
2023-02-14T12:22:04.522Z,48.82
2023-02-14T12:25:10.974Z,49.46
2023-02-14T12:27:50.969Z,49.31
2023-02-14T12:30:39.153Z,50.00
2023-02-14T12:33:25.234Z,50.45
2023-02-14T12:36:13.282Z,50.65
2023-02-14T12:39:21.749Z,51.22
2023-02-14T12:42:08.234Z,51.64
2023-02-14T12:44:54.777Z,52.12
2023-02-14T12:48:07.322Z,52.42
2023-02-14T12:51:12.986Z,52.95
2023-02-14T12:54:02.539Z,53.65
2023-02-14T12:56:59.400Z,54.39
2023-02-14T13:00:03.764Z,54.95
2023-02-14T13:03:50.142Z,55.27
2023-02-14T13:06:39.899Z,55.76
2023-02-14T13:10:12.881Z,56.17
2023-02-14T13:13:37.156Z,56.51
2023-02-14T13:16:35.685Z,56.23
2023-02-14T13:20:07.058Z,56.51
2023-02-14T13:22:44.277Z,56.65
2023-02-14T13:25:41.232Z,56.88
2023-02-14T13:28:20.489Z,56.78
2023-02-14T13:30:59.899Z,57.46
2023-02-14T13:33:41.956Z,57.61
2023-02-14T13:36:14.002Z,57.71
2023-02-14T13:38:51.962Z,57.74
2023-02-14T13:41:32.437Z,58.16
2023-02-14T13:44:09.112Z,58.49
2023-02-14T13:46:56.521Z,58.69
2023-02-14T13:49:57.122Z,58.86
2023-02-14T13:52:55.961Z,59.12
2023-02-14T13:55:37.009Z,59.68
2023-02-14T13:58:26.333Z,59.67
2023-02-14T14:01:33.923Z,60.06
2023-02-14T14:04:27.334Z,59.79
2023-02-14T14:07:05.504Z,59.88
2023-02-14T14:09:44.296Z,60.52
2023-02-14T14:12:28.990Z,60.39
2023-02-14T14:15:07.021Z,60.55
2023-02-14T14:17:46.700Z,60.71
2023-02-14T14:20:16.568Z,61.29
2023-02-14T14:22:58.992Z,61.04
2023-02-14T14:25:37.928Z,61.46
2023-02-14T14:28:22.514Z,61.41
2023-02-14T14:30:53.325Z,61.59
2023-02-14T14:33:28.387Z,61.74
2023-02-14T14:36:08.153Z,61.80
2023-02-14T14:38:54.909Z,61.58
2023-02-14T14:41:32.998Z,62.36
2023-02-14T14:44:16.694Z,62.65
2023-02-14T14:47:03.107Z,62.90
2023-02-14T14:49:39.184Z,62.03
2023-02-14T14:52:36.556Z,62.81
2023-02-14T14:55:11.219Z,62.34
2023-02-14T14:57:43.032Z,62.87
2023-02-14T15:00:31.002Z,62.31
2023-02-14T15:03:12.304Z,62.87
2023-02-14T15:05:53.389Z,63.02
2023-02-14T15:08:25.481Z,63.32
2023-02-14T15:11:09.638Z,63.30
2023-02-14T15:13:55.414Z,63.63
2023-02-14T15:16:35.964Z,64.30
2023-02-14T15:19:11.304Z,64.11
2023-02-14T15:21:44.517Z,64.54
2023-02-14T15:24:18.402Z,64.79
2023-02-14T15:26:52.013Z,64.65
2023-02-14T15:29:30.044Z,64.73
2023-02-14T15:32:03.443Z,64.63
2023-02-14T15:34:36.532Z,64.69
2023-02-14T15:37:07.350Z,65.11
2023-02-14T15:39:49.762Z,65.18
2023-02-14T15:42:33.194Z,65.63
2023-02-14T15:45:24.248Z,66.53
2023-02-14T15:48:06.917Z,65.54
2023-02-14T15:50:46.174Z,65.94
2023-02-14T15:53:46.108Z,66.36
2023-02-14T15:56:30.938Z,66.73
2023-02-14T15:59:20.579Z,66.74
2023-02-14T16:02:06.644Z,67.66
2023-02-14T16:04:57.398Z,67.75
2023-02-14T16:07:30.160Z,67.72
2023-02-14T16:10:24.832Z,67.63
2023-02-14T16:13:14.520Z,67.99
2023-02-14T16:16:21.014Z,67.96
2023-02-14T16:18:59.751Z,68.29
2023-02-14T16:21:35.240Z,68.18
2023-02-14T16:24:07.885Z,68.37
2023-02-14T16:26:54.635Z,68.78
2023-02-14T16:29:28.777Z,68.98
2023-02-14T16:32:16.544Z,68.99
2023-02-14T16:34:52.257Z,69.00
2023-02-14T16:37:36.782Z,69.05
2023-02-14T16:40:15.240Z,68.98
2023-02-14T16:42:46.042Z,68.91
2023-02-14T16:45:22.871Z,69.09
2023-02-14T16:47:53.914Z,69.12
2023-02-14T16:50:23.798Z,69.22
2023-02-14T16:53:01.848Z,69.51
2023-02-14T16:55:35.942Z,69.89
2023-02-14T16:58:05.757Z,70.02
2023-02-14T17:00:37.298Z,70.75
2023-02-14T17:03:11.977Z,71.25
2023-02-14T17:05:42.828Z,71.41
2023-02-14T17:08:16.398Z,71.60
2023-02-14T17:10:52.599Z,71.93
2023-02-14T17:13:28.125Z,72.14
2023-02-14T17:15:58.278Z,72.19
2023-02-14T17:18:31.457Z,72.52
2023-02-14T17:21:06.984Z,72.61
2023-02-14T17:23:44.793Z,72.70
2023-02-14T17:26:14.758Z,72.87
2023-02-14T17:28:51.114Z,72.97
2023-02-14T17:31:21.058Z,72.85
2023-02-14T17:33:53.453Z,73.10
2023-02-14T17:36:24.991Z,72.91
2023-02-14T17:38:55.483Z,72.63
2023-02-14T17:41:35.473Z,72.58
2023-02-14T17:44:13.812Z,72.38
2023-02-14T17:46:43.554Z,72.43
2023-02-14T17:49:16.757Z,72.51
2023-02-14T17:51:56.679Z,72.54
2023-02-14T17:54:27.871Z,72.64
2023-02-14T17:56:57.363Z,72.70
2023-02-14T17:59:26.997Z,72.67
2023-02-14T18:02:04.371Z,72.65
2023-02-14T18:04:37.713Z,72.85
2023-02-14T18:07:12.891Z,72.88
2023-02-14T18:09:43.870Z,72.74
2023-02-14T18:12:25.365Z,72.73
2023-02-14T18:15:00.238Z,72.65
2023-02-14T18:17:30.627Z,72.80
2023-02-14T18:20:08.465Z,72.74
2023-02-14T18:22:44.050Z,72.73
2023-02-14T18:25:22.275Z,72.83
2023-02-14T18:27:53.904Z,72.89
2023-02-14T18:30:29.192Z,72.91
2023-02-14T18:33:01.135Z,73.19
2023-02-14T18:35:31.100Z,73.14
2023-02-14T18:38:03.594Z,73.28
2023-02-14T18:40:36.528Z,73.22
2023-02-14T18:43:06.330Z,73.18
2023-02-14T18:45:41.773Z,73.19
2023-02-14T18:48:11.492Z,73.25
2023-02-14T18:50:42.470Z,73.43
2023-02-14T18:53:13.092Z,73.58
2023-02-14T18:55:43.055Z,73.71
2023-02-14T18:58:12.984Z,73.66
2023-02-14T19:00:44.522Z,73.55
2023-02-14T19:03:15.688Z,73.62
2023-02-14T19:05:46.670Z,73.63
2023-02-14T19:08:16.772Z,73.31
2023-02-14T19:10:47.268Z,73.46
2023-02-14T19:13:16.820Z,73.55
2023-02-14T19:15:49.754Z,73.74
2023-02-14T19:18:22.810Z,73.80
2023-02-14T19:20:56.223Z,73.89
2023-02-14T19:23:25.544Z,73.91
2023-02-14T19:25:55.043Z,74.02
2023-02-14T19:28:28.766Z,73.97
2023-02-14T19:31:00.064Z,73.90
2023-02-14T19:33:31.187Z,73.97
2023-02-14T19:36:06.850Z,73.82
2023-02-14T19:38:36.467Z,73.80
2023-02-14T19:41:26.983Z,73.87
2023-02-14T19:44:03.497Z,73.80
2023-02-14T19:46:35.608Z,73.94
2023-02-14T19:49:07.119Z,73.89
2023-02-14T19:51:37.261Z,73.89
2023-02-14T19:54:13.372Z,74.04
2023-02-14T19:56:47.248Z,74.04
2023-02-14T19:59:20.630Z,74.11
2023-02-14T20:01:54.526Z,74.09
2023-02-14T20:04:31.416Z,74.36
2023-02-14T20:07:02.964Z,74.23
2023-02-14T20:09:33.114Z,74.31
2023-02-14T20:12:05.062Z,74.37
2023-02-14T20:14:50.850Z,74.11
2023-02-14T20:17:26.952Z,74.23
2023-02-14T20:19:57.191Z,74.26
2023-02-14T20:22:29.330Z,74.38
2023-02-14T20:24:59.258Z,74.53
2023-02-14T20:27:28.649Z,74.45
2023-02-14T20:29:59.427Z,74.66
2023-02-14T20:32:29.373Z,74.67
2023-02-14T20:34:59.796Z,74.65
2023-02-14T20:37:30.292Z,74.71
2023-02-14T20:40:02.109Z,74.73
2023-02-14T20:42:33.018Z,74.80
2023-02-14T20:45:03.047Z,74.99
2023-02-14T20:47:32.360Z,75.01
2023-02-14T20:50:01.870Z,75.07
2023-02-14T20:52:38.609Z,75.02
2023-02-14T20:55:09.599Z,75.49
2023-02-14T20:57:40.829Z,75.41
2023-02-14T21:00:11.370Z,75.60
2023-02-14T21:02:41.689Z,75.67
2023-02-14T21:05:11.741Z,75.67
2023-02-14T21:07:41.162Z,75.58
2023-02-14T21:10:11.292Z,75.73
2023-02-14T21:12:40.780Z,75.51
2023-02-14T21:15:24.841Z,75.32
2023-02-14T21:17:59.244Z,75.44
2023-02-14T21:20:33.971Z,75.66
2023-02-14T21:23:03.292Z,75.89
2023-02-14T21:25:35.657Z,75.96
2023-02-14T21:28:05.956Z,76.00
2023-02-14T21:30:39.491Z,75.98
2023-02-14T21:33:09.193Z,76.28
2023-02-14T21:35:42.087Z,76.55
2023-02-14T21:38:28.446Z,76.58
2023-02-14T21:41:17.551Z,76.60
2023-02-14T21:44:04.699Z,76.97
2023-02-14T21:46:44.314Z,77.23
2023-02-14T21:49:39.911Z,77.53
2023-02-14T21:52:12.028Z,77.20
2023-02-14T21:54:49.522Z,77.78
2023-02-14T21:57:29.297Z,77.86
2023-02-14T22:00:12.377Z,77.72
2023-02-14T22:02:45.243Z,77.86
2023-02-14T22:05:19.284Z,78.00
2023-02-14T22:07:54.474Z,78.14
2023-02-14T22:10:33.162Z,78.01
2023-02-14T22:13:07.766Z,78.65
2023-02-14T22:15:42.438Z,78.45
2023-02-14T22:18:16.713Z,78.64
2023-02-14T22:20:53.061Z,78.55
2023-02-14T22:23:45.815Z,78.74
2023-02-14T22:26:29.928Z,79.00
2023-02-14T22:29:25.095Z,79.23
2023-02-14T22:32:04.082Z,79.09
2023-02-14T22:34:51.452Z,78.92
2023-02-14T22:37:32.339Z,79.33
2023-02-14T22:40:11.611Z,79.41
2023-02-14T22:42:48.457Z,79.27
2023-02-14T22:45:23.161Z,79.35
2023-02-14T22:47:53.133Z,79.72
2023-02-14T22:50:28.681Z,79.45
2023-02-14T22:52:59.432Z,79.60
2023-02-14T22:55:34.050Z,79.71
2023-02-14T22:58:07.578Z,79.81
2023-02-14T23:00:50.401Z,79.78
2023-02-14T23:03:22.599Z,79.77
2023-02-14T23:05:59.400Z,79.81
2023-02-14T23:08:34.668Z,80.16
2023-02-14T23:11:27.089Z,80.18
2023-02-14T23:14:52.079Z,80.24
2023-02-14T23:17:50.029Z,80.34
2023-02-14T23:20:38.198Z,80.36
2023-02-14T23:23:07.828Z,80.41
2023-02-14T23:25:46.740Z,80.45
2023-02-14T23:28:22.144Z,80.57
2023-02-14T23:31:05.785Z,80.83
2023-02-14T23:33:39.682Z,80.87
2023-02-14T23:36:13.734Z,80.99
2023-02-14T23:38:50.851Z,80.72
2023-02-14T23:41:44.110Z,80.64
2023-02-14T23:44:31.273Z,80.77
2023-02-14T23:47:19.015Z,80.68
2023-02-14T23:49:48.742Z,80.70
2023-02-14T23:52:22.383Z,80.53
2023-02-14T23:54:55.892Z,80.64
2023-02-14T23:57:30.617Z,80.74
